createdAt,value
2023-04-19T00:01:57.304Z,10.07
2023-04-19T00:04:24.794Z,9.13
2023-04-19T00:06:52.154Z,5.90
2023-04-19T00:09:19.363Z,6.70
2023-04-19T00:11:47.976Z,7.77
2023-04-19T00:14:15.431Z,6.77
2023-04-19T00:16:43.240Z,7.97
2023-04-19T00:19:10.533Z,6.57
2023-04-19T00:21:37.821Z,5.60
2023-04-19T00:24:05.675Z,6.43
2023-04-19T00:26:32.893Z,5.90
2023-04-19T00:29:01.910Z,7.93
2023-04-19T00:31:30.716Z,8.00
2023-04-19T00:33:58.472Z,6.87
2023-04-19T00:36:27.483Z,6.60
2023-04-19T00:38:54.814Z,6.00
2023-04-19T00:41:22.070Z,7.57
2023-04-19T00:43:49.329Z,5.40
2023-04-19T00:46:17.962Z,7.13
2023-04-19T00:48:45.963Z,6.40
2023-04-19T00:51:13.402Z,7.77
2023-04-19T00:53:41.190Z,7.03
2023-04-19T00:56:08.919Z,8.57
2023-04-19T00:58:36.638Z,8.53
2023-04-19T01:01:05.561Z,6.93
2023-04-19T01:03:36.139Z,7.70
2023-04-19T01:06:05.345Z,6.90
2023-04-19T01:08:33.225Z,7.47
2023-04-19T01:11:00.489Z,9.27
2023-04-19T01:13:27.698Z,7.20
2023-04-19T01:15:55.281Z,6.83
2023-04-19T01:18:22.881Z,8.07
2023-04-19T01:20:51.438Z,7.50
2023-04-19T01:23:20.061Z,6.97
2023-04-19T01:25:49.638Z,7.47
2023-04-19T01:28:16.907Z,7.63
2023-04-19T01:30:44.164Z,7.57
2023-04-19T01:33:11.659Z,8.50
2023-04-19T01:35:39.001Z,7.27
2023-04-19T01:38:08.136Z,7.90
2023-04-19T01:40:36.819Z,10.60
2023-04-19T01:43:05.107Z,7.70
2023-04-19T01:45:32.524Z,7.60
2023-04-19T01:47:59.832Z,7.80
2023-04-19T01:50:28.186Z,8.53
2023-04-19T01:52:56.761Z,7.87
2023-04-19T01:55:24.128Z,6.93
2023-04-19T01:57:54.891Z,8.00
2023-04-19T02:00:23.608Z,7.67
2023-04-19T02:02:51.098Z,7.70
2023-04-19T02:05:20.135Z,8.27
2023-04-19T02:07:47.368Z,7.13
2023-04-19T02:10:14.622Z,6.80
2023-04-19T02:12:42.158Z,5.83
2023-04-19T02:15:11.279Z,9.37
2023-04-19T02:17:38.535Z,7.20
2023-04-19T02:22:40.758Z,7.40
2023-04-19T02:25:08.668Z,8.00
2023-04-19T02:27:35.898Z,9.50
2023-04-19T02:30:03.450Z,8.57
2023-04-19T02:32:35.407Z,7.27
2023-04-19T02:35:03.259Z,7.77
2023-04-19T02:37:30.542Z,7.97
2023-04-19T02:39:57.817Z,6.27
2023-04-19T02:42:25.045Z,7.83
2023-04-19T02:44:54.065Z,8.10
2023-04-19T02:47:24.813Z,8.77
2023-04-19T02:52:42.818Z,10.90
2023-04-19T02:55:10.753Z,10.00
2023-04-19T02:57:38.324Z,8.60
2023-04-19T03:00:13.845Z,8.97
2023-04-19T03:02:46.648Z,6.83
2023-04-19T03:05:15.731Z,12.23
2023-04-19T03:07:44.759Z,8.03
2023-04-19T03:10:12.694Z,8.73
2023-04-19T03:12:39.891Z,8.43
2023-04-19T03:15:07.846Z,7.60
2023-04-19T03:17:35.769Z,8.80
2023-04-19T03:20:03.344Z,8.47
2023-04-19T03:22:30.902Z,8.50
2023-04-19T03:24:59.495Z,7.87
2023-04-19T03:27:26.786Z,8.77
2023-04-19T03:29:59.198Z,10.03
2023-04-19T03:32:27.391Z,10.93
2023-04-19T03:34:54.694Z,10.47
2023-04-19T03:37:21.955Z,7.87
2023-04-19T03:39:49.535Z,8.23
2023-04-19T03:42:24.593Z,9.93
2023-04-19T03:45:01.852Z,17.10
2023-04-19T03:47:40.427Z,7.70
2023-04-19T03:50:08.940Z,9.10
2023-04-19T03:52:38.040Z,8.50
2023-04-19T03:55:05.850Z,10.83
2023-04-19T03:57:40.634Z,9.00
2023-04-19T04:00:16.876Z,11.57
2023-04-19T04:02:48.976Z,15.07
2023-04-19T04:05:16.798Z,12.00
2023-04-19T04:07:44.401Z,9.63
2023-04-19T04:10:11.767Z,10.20
2023-04-19T04:12:44.243Z,6.80
2023-04-19T04:15:18.322Z,8.27
2023-04-19T04:17:55.533Z,9.90
2023-04-19T04:20:23.219Z,9.20
2023-04-19T04:22:54.934Z,9.27
2023-04-19T04:25:23.198Z,8.90
2023-04-19T04:27:52.894Z,9.53
2023-04-19T04:30:22.310Z,9.93
2023-04-19T04:32:49.916Z,8.63
2023-04-19T04:35:17.149Z,9.00
2023-04-19T04:37:58.779Z,8.37
2023-04-19T04:40:26.375Z,7.73
2023-04-19T04:42:55.181Z,9.50
2023-04-19T04:45:32.428Z,9.43
2023-04-19T04:48:03.732Z,8.90
2023-04-19T04:50:31.864Z,7.63
2023-04-19T04:52:59.274Z,8.17
2023-04-19T04:55:30.212Z,8.30
2023-04-19T04:57:59.352Z,8.40
2023-04-19T05:00:38.775Z,8.90
2023-04-19T05:06:03.255Z,8.80
2023-04-19T05:08:31.510Z,9.03
2023-04-19T05:11:11.751Z,7.90
2023-04-19T05:13:40.942Z,9.90
2023-04-19T05:16:08.409Z,11.03
2023-04-19T05:22:26.902Z,8.97
2023-04-19T05:25:00.569Z,8.33
2023-04-19T05:27:27.905Z,8.47
2023-04-19T05:29:57.163Z,9.47
2023-04-19T05:32:24.889Z,9.63
2023-04-19T05:34:56.777Z,8.00
2023-04-19T05:37:24.229Z,8.23
2023-04-19T05:39:51.957Z,9.87
2023-04-19T05:42:19.485Z,7.67
2023-04-19T05:44:46.726Z,6.47
2023-04-19T05:47:15.717Z,9.67
2023-04-19T05:50:02.314Z,7.57
2023-04-19T05:52:32.907Z,7.33
2023-04-19T05:55:01.481Z,7.37
2023-04-19T05:57:28.890Z,8.53
2023-04-19T05:59:56.249Z,8.37
2023-04-19T06:02:28.313Z,9.47
2023-04-19T06:04:55.718Z,5.70
2023-04-19T06:07:32.084Z,5.30
2023-04-19T06:10:01.493Z,7.07
2023-04-19T06:12:28.775Z,7.27
2023-04-19T06:14:56.094Z,8.17
2023-04-19T06:17:23.635Z,9.30
2023-04-19T06:20:09.522Z,7.67
2023-04-19T06:22:42.085Z,7.13
2023-04-19T06:25:09.420Z,8.30
2023-04-19T06:27:36.644Z,8.20
2023-04-19T06:30:04.002Z,6.53
2023-04-19T06:32:31.624Z,8.00
2023-04-19T06:34:59.054Z,8.03
2023-04-19T06:37:27.695Z,7.70
2023-04-19T06:39:54.945Z,6.30
2023-04-19T06:42:22.167Z,6.47
2023-04-19T06:44:49.723Z,5.40
2023-04-19T06:47:17.135Z,8.07
2023-04-19T06:49:44.311Z,8.07
2023-04-19T06:52:11.526Z,6.50
2023-04-19T06:54:47.723Z,7.37
2023-04-19T06:57:15.003Z,6.97
2023-04-19T06:59:42.236Z,7.57
2023-04-19T07:02:09.680Z,9.73
2023-04-19T07:04:37.244Z,7.53
2023-04-19T07:07:04.671Z,8.00
2023-04-19T07:09:31.997Z,9.23
2023-04-19T07:12:00.647Z,6.93
2023-04-19T07:14:27.942Z,7.50
2023-04-19T07:16:56.014Z,8.07
2023-04-19T07:19:23.249Z,6.83
2023-04-19T07:21:50.767Z,6.27
2023-04-19T07:24:18.268Z,7.97
2023-04-19T07:26:45.854Z,9.50
2023-04-19T07:29:14.440Z,10.80
2023-04-19T07:31:42.140Z,8.63
2023-04-19T07:34:09.596Z,8.50
2023-04-19T07:36:36.881Z,7.60
2023-04-19T07:39:04.316Z,11.07
2023-04-19T07:41:31.532Z,6.50
2023-04-19T07:43:58.782Z,5.73
2023-04-19T07:46:28.324Z,8.47
2023-04-19T07:48:55.757Z,6.40
2023-04-19T07:51:23.204Z,5.90
2023-04-19T07:53:50.798Z,5.67
2023-04-19T07:56:33.472Z,6.27
2023-04-19T07:59:08.456Z,11.07
2023-04-19T08:01:38.290Z,4.70
2023-04-19T08:04:06.207Z,7.03
2023-04-19T08:06:33.826Z,9.77
2023-04-19T08:09:01.069Z,6.87
2023-04-19T08:11:28.333Z,6.53
2023-04-19T08:21:41.228Z,5.93
2023-04-19T08:24:09.651Z,8.93
2023-04-19T08:26:37.118Z,7.07
2023-04-19T08:29:04.377Z,6.80
2023-04-19T08:31:31.655Z,4.70
2023-04-19T08:33:58.888Z,9.63
2023-04-19T08:36:35.996Z,7.30
2023-04-19T08:39:17.703Z,5.53
2023-04-19T08:41:55.940Z,5.50
2023-04-19T08:44:36.498Z,7.53
2023-04-19T08:47:05.101Z,6.80
2023-04-19T08:49:32.835Z,5.87
2023-04-19T08:52:00.758Z,5.70
2023-04-19T08:54:29.993Z,8.17
2023-04-19T08:56:59.602Z,7.07
2023-04-19T08:59:26.882Z,4.50
2023-04-19T09:02:10.012Z,7.10
2023-04-19T09:04:38.032Z,5.57
2023-04-19T09:07:05.583Z,5.87
2023-04-19T09:09:42.969Z,7.50
2023-04-19T09:12:16.803Z,5.97
2023-04-19T09:14:59.843Z,7.13
2023-04-19T09:17:36.893Z,5.10
2023-04-19T09:20:04.793Z,4.87
2023-04-19T09:22:32.617Z,5.27
2023-04-19T09:27:32.858Z,4.63
2023-04-19T09:30:00.786Z,8.63
2023-04-19T09:32:28.772Z,3.87
2023-04-19T09:34:57.540Z,3.90
2023-04-19T09:37:44.358Z,3.47
2023-04-19T09:40:23.828Z,5.27
2023-04-19T09:45:30.038Z,4.23
2023-04-19T09:48:01.797Z,4.07
2023-04-19T09:50:31.207Z,3.63
2023-04-19T09:52:59.796Z,4.67
2023-04-19T09:55:29.897Z,5.50
2023-04-19T09:57:58.922Z,4.00
2023-04-19T10:00:27.015Z,3.77
2023-04-19T10:02:55.380Z,4.43
2023-04-19T10:05:23.091Z,4.57
2023-04-19T10:07:51.298Z,3.90
2023-04-19T10:10:20.953Z,4.53
2023-04-19T10:15:24.182Z,4.83
2023-04-19T10:17:51.810Z,2.87
2023-04-19T10:20:21.294Z,4.87
2023-04-19T10:22:49.875Z,7.80
2023-04-19T10:25:17.447Z,3.50
2023-04-19T10:27:48.427Z,4.50
2023-04-19T10:30:20.861Z,4.13
2023-04-19T10:32:52.444Z,5.60
2023-04-19T10:35:20.640Z,3.77
2023-04-19T10:38:06.215Z,3.53
2023-04-19T10:40:51.997Z,7.00
2023-04-19T10:43:19.443Z,2.73
2023-04-19T10:45:48.256Z,2.87
2023-04-19T10:48:42.715Z,3.93
2023-04-19T10:51:13.449Z,2.70
2023-04-19T10:53:53.698Z,2.33
2023-04-19T10:56:22.264Z,3.17
2023-04-19T10:59:08.612Z,1.97
2023-04-19T11:01:38.452Z,3.73
2023-04-19T11:04:06.251Z,6.97
2023-04-19T11:06:33.753Z,2.30
2023-04-19T11:09:01.316Z,2.67
2023-04-19T11:11:28.654Z,3.90
2023-04-19T11:13:56.310Z,7.80
2023-04-19T11:16:31.295Z,2.60
2023-04-19T11:19:06.869Z,3.77
2023-04-19T11:21:34.152Z,5.43
2023-04-19T11:24:19.927Z,2.77
2023-04-19T11:26:47.407Z,3.43
2023-04-19T11:29:14.910Z,1.90
2023-04-19T11:31:44.879Z,3.70
2023-04-19T11:34:13.680Z,4.00
2023-04-19T11:36:48.026Z,3.80
2023-04-19T11:39:15.253Z,4.00
2023-04-19T11:41:42.556Z,2.73
2023-04-19T11:44:16.637Z,2.10
2023-04-19T11:46:44.050Z,2.63
2023-04-19T11:49:11.408Z,3.40
2023-04-19T11:51:44.052Z,2.93
2023-04-19T11:54:14.634Z,3.63
2023-04-19T11:56:57.050Z,2.97
2023-04-19T11:59:24.312Z,3.77
2023-04-19T12:01:51.501Z,3.50
2023-04-19T12:04:19.041Z,2.30
2023-04-19T12:06:56.643Z,5.73
2023-04-19T12:09:24.304Z,4.10
2023-04-19T12:11:51.858Z,4.00
2023-04-19T12:14:20.319Z,2.60
2023-04-19T12:16:56.245Z,5.57
2023-04-19T12:19:23.773Z,2.93
2023-04-19T12:22:19.786Z,2.17
2023-04-19T12:24:48.376Z,2.27
2023-04-19T12:27:18.030Z,2.67
2023-04-19T12:29:45.522Z,5.80
2023-04-19T12:32:13.007Z,2.57
2023-04-19T12:34:40.240Z,3.17
2023-04-19T12:37:07.504Z,2.30
2023-04-19T12:39:34.805Z,3.50
2023-04-19T12:42:03.476Z,2.17
2023-04-19T12:44:30.718Z,1.33
2023-04-19T12:46:58.049Z,2.70
2023-04-19T12:49:25.371Z,3.67
2023-04-19T12:51:53.665Z,2.07
2023-04-19T12:54:22.884Z,3.83
2023-04-19T12:56:50.085Z,4.00
2023-04-19T12:59:18.943Z,2.70
2023-04-19T13:01:46.498Z,3.23
2023-04-19T13:04:13.997Z,2.60
2023-04-19T13:06:41.667Z,2.80
2023-04-19T13:32:07.863Z,4.37
2023-04-19T13:34:35.526Z,2.70
2023-04-19T13:37:05.747Z,10.10
2023-04-19T15:19:43.362Z,3.67
2023-04-19T16:15:23.197Z,3.87
2023-04-19T16:17:50.459Z,4.07
2023-04-19T16:20:18.209Z,2.30
2023-04-19T16:23:10.789Z,4.93
2023-04-19T16:25:55.400Z,3.53
2023-04-19T16:28:23.887Z,3.70
2023-04-19T16:30:52.550Z,5.10
2023-04-19T16:33:19.836Z,3.83
2023-04-19T16:35:47.092Z,4.70
2023-04-19T16:38:14.433Z,4.77
2023-04-19T16:40:47.242Z,5.00
2023-04-19T16:43:14.938Z,7.73
2023-04-19T16:45:42.269Z,3.57
2023-04-19T16:48:10.994Z,3.83
2023-04-19T17:28:26.368Z,3.23
2023-04-19T17:30:53.761Z,3.37
2023-04-19T17:33:21.023Z,5.40
2023-04-19T17:35:48.326Z,6.13
2023-04-19T17:38:15.551Z,5.73
2023-04-19T17:40:43.198Z,6.20
2023-04-19T17:43:10.668Z,3.50
2023-04-19T17:45:39.251Z,6.00
2023-04-19T17:48:06.744Z,3.03
2023-04-19T17:50:55.713Z,3.93
2023-04-19T18:38:30.324Z,4.27
2023-04-19T18:40:57.618Z,10.30
2023-04-19T18:43:24.999Z,5.57
2023-04-19T18:45:55.102Z,4.97
2023-04-19T18:48:22.424Z,4.63
2023-04-19T18:50:49.709Z,5.77
2023-04-19T18:53:16.912Z,4.90
2023-04-19T18:55:45.476Z,4.47
2023-04-19T18:58:12.846Z,3.77
2023-04-19T19:00:40.112Z,5.00
2023-04-19T19:05:35.434Z,3.83
2023-04-19T19:08:03.314Z,10.90
2023-04-19T19:13:02.328Z,3.73
2023-04-19T19:15:30.198Z,5.90
2023-04-19T19:17:57.566Z,7.37
2023-04-19T19:20:25.047Z,6.83
2023-04-19T19:22:52.264Z,4.97
2023-04-19T19:25:19.683Z,5.00
2023-04-19T19:28:05.424Z,2.83
2023-04-19T19:30:35.800Z,6.67
2023-04-19T19:33:03.388Z,4.73
2023-04-19T19:35:30.735Z,5.67
2023-04-19T19:37:58.065Z,5.63
2023-04-19T19:40:25.279Z,6.50
2023-04-19T19:42:52.483Z,7.70
2023-04-19T19:45:19.765Z,4.07
2023-04-19T19:47:50.007Z,4.67
2023-04-19T19:52:47.972Z,5.17
2023-04-19T19:55:15.509Z,5.10
2023-04-19T19:58:10.334Z,3.70
2023-04-19T20:03:01.945Z,4.70
2023-04-19T20:05:29.925Z,3.07
2023-04-19T20:08:05.910Z,5.00
2023-04-19T20:10:33.396Z,4.87
2023-04-19T20:13:01.061Z,3.73
2023-04-19T20:15:28.393Z,5.20
2023-04-19T20:17:55.960Z,6.20
2023-04-19T20:20:24.780Z,5.03
2023-04-19T20:22:52.387Z,4.57
2023-04-19T20:25:19.686Z,5.17
2023-04-19T20:27:46.947Z,3.37
2023-04-19T20:30:14.340Z,4.30
2023-04-19T20:32:41.722Z,5.13
2023-04-19T20:35:09.906Z,5.83
2023-04-19T20:37:39.096Z,4.67
2023-04-19T20:40:06.946Z,3.30
2023-04-19T20:42:34.188Z,3.63
2023-04-19T20:45:01.428Z,3.67
2023-04-19T20:47:28.679Z,4.33
2023-04-19T20:49:55.901Z,4.07
2023-04-19T20:52:23.116Z,5.23
2023-04-19T20:54:51.897Z,2.77
2023-04-19T20:57:19.171Z,4.80
2023-04-19T20:59:46.408Z,4.77
2023-04-19T21:02:13.752Z,4.17
2023-04-19T21:04:41.104Z,5.60
2023-04-19T21:07:08.709Z,5.17
2023-04-19T21:09:36.025Z,5.23
2023-04-19T21:12:04.813Z,6.53
2023-04-19T21:14:32.389Z,5.13
2023-04-19T21:16:59.640Z,3.10
2023-04-19T21:19:26.953Z,6.83
2023-04-19T21:21:54.228Z,2.70
2023-04-19T21:24:21.495Z,3.27
2023-04-19T21:26:48.682Z,2.80
2023-04-19T21:29:17.418Z,4.03
2023-04-19T21:31:44.812Z,3.93
2023-04-19T21:34:12.061Z,3.37
2023-04-19T21:36:39.323Z,5.93
2023-04-19T21:39:06.826Z,3.03
2023-04-19T21:41:34.112Z,4.00
2023-04-19T21:44:01.346Z,3.83
2023-04-19T21:46:30.026Z,3.47
2023-04-19T21:48:57.275Z,3.57
2023-04-19T21:51:24.535Z,5.83
2023-04-19T21:54:17.947Z,3.70
2023-04-19T23:29:41.598Z,6.47
2023-04-19T23:32:08.944Z,5.07
2023-04-19T23:34:36.202Z,3.10
2023-04-19T23:37:03.793Z,3.50
2023-04-19T23:39:31.406Z,3.70
2023-04-19T23:41:59.012Z,2.77
2023-04-19T23:44:26.731Z,7.17
2023-04-19T23:46:55.488Z,5.83
2023-04-19T23:49:22.893Z,3.07
2023-04-19T23:51:50.342Z,2.50
2023-04-19T23:54:36.126Z,4.70
